createdAt,value
2022-10-18T00:01:01.160Z,12.59
2022-10-18T00:03:38.093Z,12.52
2022-10-18T00:06:12.623Z,12.59
2022-10-18T00:08:45.228Z,12.35
2022-10-18T00:11:15.247Z,12.33
2022-10-18T00:13:46.805Z,12.23
2022-10-18T00:16:18.665Z,12.27
2022-10-18T00:18:50.324Z,12.39
2022-10-18T00:21:21.935Z,12.68
2022-10-18T00:23:53.357Z,12.78
2022-10-18T00:26:27.890Z,12.63
2022-10-18T00:29:00.752Z,12.49
2022-10-18T00:31:35.604Z,12.16
2022-10-18T00:34:16.443Z,12.39
2022-10-18T00:36:48.969Z,12.35
2022-10-18T00:39:22.661Z,12.36
2022-10-18T00:41:55.739Z,12.10
2022-10-18T00:44:28.694Z,12.16
2022-10-18T00:47:08.596Z,12.34
2022-10-18T00:49:51.601Z,12.30
2022-10-18T00:52:38.646Z,12.27
2022-10-18T00:55:09.965Z,12.23
2022-10-18T00:57:42.781Z,12.16
2022-10-18T01:00:13.777Z,12.32
2022-10-18T01:02:45.282Z,12.34
2022-10-18T01:05:20.741Z,12.09
2022-10-18T01:08:19.387Z,11.87
2022-10-18T01:11:19.969Z,12.25
2022-10-18T01:14:00.716Z,12.44
2022-10-18T01:17:05.191Z,12.28
2022-10-18T01:19:56.895Z,12.10
2022-10-18T01:22:33.580Z,12.27
2022-10-18T01:25:25.230Z,12.10
2022-10-18T01:28:16.748Z,11.92
2022-10-18T01:31:07.141Z,12.05
2022-10-18T01:33:42.867Z,11.92
2022-10-18T01:36:15.557Z,11.65
2022-10-18T01:38:46.374Z,11.99
2022-10-18T01:41:18.758Z,11.58
2022-10-18T01:43:57.031Z,11.99
2022-10-18T01:46:31.210Z,11.96
2022-10-18T01:49:05.802Z,11.92
2022-10-18T01:51:34.921Z,11.95
2022-10-18T01:54:06.711Z,11.81
2022-10-18T01:56:57.678Z,11.74
2022-10-18T01:59:53.849Z,11.70
2022-10-18T02:02:50.572Z,11.47
2022-10-18T02:05:34.643Z,11.51
2022-10-18T02:08:23.411Z,11.26
2022-10-18T02:11:01.799Z,11.48
2022-10-18T02:13:37.367Z,11.34
2022-10-18T02:16:10.098Z,11.46
2022-10-18T02:18:41.255Z,11.48
2022-10-18T02:21:13.292Z,11.24
2022-10-18T02:23:44.101Z,11.28
2022-10-18T02:26:14.938Z,11.30
2022-10-18T02:28:43.451Z,11.22
2022-10-18T02:31:41.775Z,11.13
2022-10-18T02:34:32.743Z,11.34
2022-10-18T02:37:02.663Z,11.30
2022-10-18T02:39:38.026Z,11.31
2022-10-18T02:42:07.217Z,11.32
2022-10-18T02:44:38.221Z,11.35
2022-10-18T02:47:09.378Z,11.19
2022-10-18T02:49:38.667Z,11.35
2022-10-18T02:52:06.420Z,11.73
2022-10-18T02:54:34.791Z,11.39
2022-10-18T02:57:03.183Z,11.35
2022-10-18T02:59:39.246Z,10.92
2022-10-18T03:02:07.660Z,11.27
2022-10-18T03:04:35.672Z,11.27
2022-10-18T03:07:04.121Z,11.11
2022-10-18T03:09:34.064Z,11.28
2022-10-18T03:12:03.155Z,11.41
2022-10-18T03:14:33.721Z,11.27
2022-10-18T03:17:03.381Z,11.23
2022-10-18T03:19:31.209Z,10.94
2022-10-18T03:22:00.528Z,11.03
2022-10-18T03:24:29.649Z,10.98
2022-10-18T03:26:59.507Z,10.91
2022-10-18T03:29:27.584Z,11.05
2022-10-18T03:31:57.423Z,11.06
2022-10-18T03:34:29.176Z,11.28
2022-10-18T03:37:00.988Z,10.89
2022-10-18T03:39:34.506Z,10.80
2022-10-18T03:42:02.791Z,10.77
2022-10-18T03:44:31.091Z,10.76
2022-10-18T03:46:59.410Z,11.07
2022-10-18T03:49:27.722Z,10.85
2022-10-18T03:51:57.930Z,10.86
2022-10-18T03:54:27.710Z,10.84
2022-10-18T03:56:55.385Z,10.86
2022-10-18T03:59:24.966Z,10.92
2022-10-18T04:01:54.078Z,10.71
2022-10-18T04:04:23.090Z,10.99
2022-10-18T04:06:52.854Z,10.88
2022-10-18T04:09:21.905Z,10.55
2022-10-18T04:11:52.628Z,10.92
2022-10-18T04:14:23.228Z,10.83
2022-10-18T04:16:51.401Z,10.81
2022-10-18T04:19:21.924Z,10.69
2022-10-18T04:21:50.243Z,10.40
2022-10-18T04:24:18.635Z,10.34
2022-10-18T04:26:47.664Z,10.45
2022-10-18T04:29:16.530Z,10.64
2022-10-18T04:31:46.041Z,10.58
2022-10-18T04:34:15.103Z,10.61
2022-10-18T04:36:43.724Z,10.48
2022-10-18T04:39:12.350Z,10.58
2022-10-18T04:41:41.339Z,10.62
2022-10-18T04:44:10.173Z,10.68
2022-10-18T04:46:40.543Z,10.33
2022-10-18T04:49:08.485Z,10.24
2022-10-18T04:51:36.874Z,10.41
2022-10-18T04:54:06.450Z,10.40
2022-10-18T04:56:34.733Z,10.36
2022-10-18T04:59:03.615Z,10.36
2022-10-18T05:01:33.954Z,10.30
2022-10-18T05:04:02.171Z,10.06
2022-10-18T05:06:30.647Z,10.64
2022-10-18T05:08:59.383Z,10.38
2022-10-18T05:11:27.491Z,10.39
2022-10-18T05:13:55.546Z,10.27
2022-10-18T05:16:24.450Z,10.26
2022-10-18T05:18:52.831Z,10.42
2022-10-18T05:21:25.942Z,10.63
2022-10-18T05:23:57.836Z,10.61
2022-10-18T05:26:26.218Z,10.69
2022-10-18T05:28:54.277Z,10.61
2022-10-18T05:31:24.079Z,10.52
2022-10-18T05:33:54.680Z,10.46
2022-10-18T05:36:22.439Z,10.47
2022-10-18T05:38:50.258Z,10.93
2022-10-18T05:41:18.286Z,11.05
2022-10-18T05:43:45.853Z,11.03
2022-10-18T05:46:15.726Z,11.14
2022-10-18T05:48:44.674Z,11.27
2022-10-18T05:51:12.747Z,11.39
2022-10-18T05:53:41.154Z,11.33
2022-10-18T05:56:11.905Z,11.26
2022-10-18T05:58:40.839Z,11.50
2022-10-18T06:01:10.334Z,11.16
2022-10-18T06:03:38.696Z,11.29
2022-10-18T06:06:09.067Z,11.43
2022-10-18T06:08:38.080Z,11.42
2022-10-18T06:11:08.432Z,11.63
2022-10-18T06:13:43.450Z,11.73
2022-10-18T06:16:12.741Z,11.95
2022-10-18T06:18:41.403Z,11.84
2022-10-18T06:21:09.994Z,11.86
2022-10-18T06:23:38.182Z,11.97
2022-10-18T06:26:07.999Z,12.07
2022-10-18T06:28:37.008Z,12.34
2022-10-18T06:31:06.490Z,12.47
2022-10-18T06:33:35.371Z,12.53
2022-10-18T06:36:04.841Z,12.61
2022-10-18T06:38:33.040Z,12.70
2022-10-18T06:41:00.663Z,12.78
2022-10-18T06:43:28.242Z,13.09
2022-10-18T06:45:56.721Z,13.28
2022-10-18T06:48:24.826Z,13.57
2022-10-18T06:50:57.474Z,13.67
2022-10-18T06:53:31.973Z,13.92
2022-10-18T06:56:05.733Z,14.10
2022-10-18T06:58:35.360Z,14.55
2022-10-18T07:01:11.477Z,14.72
2022-10-18T07:03:39.772Z,14.97
2022-10-18T07:06:09.091Z,15.00
2022-10-18T07:08:37.806Z,15.11
2022-10-18T07:11:07.383Z,14.97
2022-10-18T07:13:35.696Z,15.19
2022-10-18T07:16:22.426Z,15.18
2022-10-18T07:18:51.570Z,15.59
2022-10-18T07:21:23.166Z,15.72
2022-10-18T07:23:51.777Z,15.77
2022-10-18T07:26:31.614Z,16.17
2022-10-18T07:29:02.711Z,16.14
2022-10-18T07:31:31.404Z,16.35
2022-10-18T07:34:00.310Z,16.36
2022-10-18T07:36:28.141Z,16.58
2022-10-18T07:38:56.515Z,16.66
2022-10-18T07:41:24.489Z,16.70
2022-10-18T07:43:52.878Z,16.90
2022-10-18T07:46:22.382Z,17.22
2022-10-18T07:48:51.289Z,17.38
2022-10-18T07:51:19.825Z,17.42
2022-10-18T07:53:48.521Z,17.76
2022-10-18T07:56:21.368Z,17.97
2022-10-18T07:58:51.715Z,18.08
2022-10-18T08:01:21.251Z,18.21
2022-10-18T08:03:49.849Z,18.40
2022-10-18T08:06:19.105Z,18.59
2022-10-18T08:08:47.450Z,18.66
2022-10-18T08:11:18.210Z,19.02
2022-10-18T08:13:46.823Z,18.98
2022-10-18T08:16:20.838Z,19.28
2022-10-18T08:18:49.054Z,19.41
2022-10-18T08:21:18.212Z,19.55
2022-10-18T08:23:46.490Z,19.45
2022-10-18T08:26:17.470Z,19.71
2022-10-18T08:28:53.780Z,19.83
2022-10-18T08:31:26.685Z,20.22
2022-10-18T08:33:57.251Z,20.22
2022-10-18T08:36:25.294Z,20.06
2022-10-18T08:38:52.878Z,20.30
2022-10-18T08:41:44.326Z,20.41
2022-10-18T08:44:22.137Z,20.70
2022-10-18T08:46:59.257Z,20.81
2022-10-18T08:49:33.689Z,20.57
2022-10-18T08:52:02.233Z,20.66
2022-10-18T08:54:52.955Z,20.84
2022-10-18T08:57:22.483Z,20.95
2022-10-18T08:59:50.327Z,21.07
2022-10-18T09:02:27.624Z,21.27
2022-10-18T09:05:01.734Z,21.11
2022-10-18T09:08:09.881Z,21.25
2022-10-18T09:10:41.034Z,21.28
2022-10-18T09:13:28.113Z,21.72
2022-10-18T09:16:01.253Z,21.57
2022-10-18T09:18:41.221Z,21.64
2022-10-18T09:21:18.062Z,21.96
2022-10-18T09:23:51.308Z,21.82
2022-10-18T09:26:21.379Z,21.67
2022-10-18T09:29:02.019Z,22.07
2022-10-18T09:31:49.067Z,21.98
2022-10-18T09:34:35.124Z,22.24
2022-10-18T09:37:04.398Z,22.32
2022-10-18T09:39:35.690Z,22.35
2022-10-18T09:42:26.882Z,22.12
2022-10-18T09:44:59.814Z,22.56
2022-10-18T09:47:34.465Z,22.29
2022-10-18T09:50:06.517Z,22.65
2022-10-18T09:52:36.292Z,22.28
2022-10-18T09:55:10.300Z,22.66
2022-10-18T09:57:49.240Z,23.06
2022-10-18T10:00:21.365Z,22.65
2022-10-18T10:02:49.564Z,22.41
2022-10-18T10:05:17.351Z,22.78
2022-10-18T10:07:49.987Z,22.92
2022-10-18T10:10:23.991Z,22.74
2022-10-18T10:13:16.301Z,22.54
2022-10-18T10:16:03.363Z,22.62
2022-10-18T10:18:37.187Z,23.27
2022-10-18T10:21:13.988Z,23.18
2022-10-18T10:23:58.272Z,22.62
2022-10-18T10:26:33.234Z,22.88
2022-10-18T10:29:00.827Z,23.26
2022-10-18T10:31:31.120Z,23.65
2022-10-18T10:34:03.501Z,23.32
2022-10-18T10:36:32.963Z,23.83
2022-10-18T10:39:08.280Z,23.95
2022-10-18T10:41:36.699Z,24.05
2022-10-18T10:44:05.741Z,24.20
2022-10-18T10:46:35.963Z,24.25
2022-10-18T10:49:34.927Z,24.43
2022-10-18T10:52:08.834Z,24.20
2022-10-18T10:54:50.270Z,24.52
2022-10-18T10:57:24.555Z,24.29
2022-10-18T10:59:55.640Z,24.04
2022-10-18T11:02:26.947Z,23.85
2022-10-18T11:04:55.962Z,24.12
2022-10-18T11:07:32.880Z,24.51
2022-10-18T11:10:10.360Z,24.52
2022-10-18T11:12:48.492Z,24.59
2022-10-18T11:15:33.215Z,24.47
2022-10-18T11:18:19.973Z,24.33
2022-10-18T11:21:11.684Z,24.27
2022-10-18T11:23:40.259Z,24.57
2022-10-18T11:26:11.106Z,24.73
2022-10-18T11:29:03.632Z,24.92
2022-10-18T11:31:54.915Z,24.97
2022-10-18T11:34:49.775Z,24.66
2022-10-18T11:37:49.097Z,24.86
2022-10-18T11:40:22.527Z,25.50
2022-10-18T11:42:56.305Z,25.67
2022-10-18T11:45:32.910Z,25.42
2022-10-18T11:48:25.593Z,25.93
2022-10-18T11:51:14.870Z,25.81
2022-10-18T11:53:58.342Z,25.74
2022-10-18T11:57:04.873Z,25.80
2022-10-18T11:59:38.119Z,25.74
2022-10-18T12:02:33.361Z,25.63
2022-10-18T12:05:22.606Z,25.63
2022-10-18T12:08:19.238Z,25.70
2022-10-18T12:11:04.562Z,25.74
2022-10-18T12:13:48.314Z,25.72
2022-10-18T12:16:33.562Z,25.56
2022-10-18T12:19:08.931Z,25.67
2022-10-18T12:21:39.111Z,26.19
2022-10-18T12:24:11.719Z,26.06
2022-10-18T12:26:40.463Z,25.72
2022-10-18T12:29:23.840Z,25.58
2022-10-18T12:31:59.673Z,25.66
2022-10-18T12:34:43.740Z,26.03
2022-10-18T12:37:37.435Z,25.54
2022-10-18T12:40:16.793Z,25.65
2022-10-18T12:42:48.816Z,25.66
2022-10-18T12:45:33.508Z,25.70
2022-10-18T12:48:08.218Z,25.57
2022-10-18T12:50:38.054Z,25.68
2022-10-18T12:53:12.856Z,25.89
2022-10-18T12:58:14.391Z,25.96
2022-10-18T13:00:42.269Z,26.34
2022-10-18T13:03:09.903Z,26.05
2022-10-18T13:05:56.577Z,26.15
2022-10-18T13:08:27.819Z,26.33
2022-10-18T13:11:02.090Z,26.33
2022-10-18T13:13:50.704Z,26.51
2022-10-18T13:16:41.081Z,26.30
2022-10-18T13:19:31.222Z,26.36
2022-10-18T13:22:08.448Z,26.57
2022-10-18T13:24:41.159Z,26.30
2022-10-18T13:27:36.399Z,26.50
2022-10-18T13:30:12.185Z,26.47
2022-10-18T13:32:59.823Z,26.52
2022-10-18T13:35:52.949Z,26.14
2022-10-18T13:38:47.345Z,26.17
2022-10-18T13:44:26.323Z,26.60
2022-10-18T13:46:57.386Z,26.19
2022-10-18T13:49:44.140Z,25.97
2022-10-18T13:52:36.776Z,26.06
2022-10-18T13:55:34.436Z,26.44
2022-10-18T13:58:05.369Z,26.59
2022-10-18T14:00:49.048Z,26.83
2022-10-18T14:06:24.450Z,27.01
2022-10-18T14:09:13.936Z,26.39
2022-10-18T14:11:56.761Z,26.42
2022-10-18T14:14:38.377Z,26.51
2022-10-18T14:17:35.777Z,26.29
2022-10-18T14:20:29.502Z,26.49
2022-10-18T14:23:11.422Z,26.17
2022-10-18T14:25:39.926Z,26.40
2022-10-18T14:28:21.692Z,26.88
2022-10-18T14:31:08.727Z,27.19
2022-10-18T14:33:40.008Z,27.37
2022-10-18T14:36:22.465Z,28.41
2022-10-18T14:39:00.588Z,29.44
2022-10-18T14:41:30.358Z,29.41
2022-10-18T14:44:20.625Z,29.35
2022-10-18T14:46:54.219Z,29.89
2022-10-18T14:49:29.747Z,30.90
2022-10-18T14:52:00.170Z,31.01
2022-10-18T14:54:32.141Z,31.91
2022-10-18T14:57:04.708Z,32.02
2022-10-18T14:59:56.432Z,32.41
2022-10-18T15:02:28.338Z,32.13
2022-10-18T15:05:14.880Z,30.77
2022-10-18T15:07:45.262Z,29.32
2022-10-18T15:10:19.137Z,28.74
2022-10-18T15:13:08.655Z,28.47
2022-10-18T15:15:36.773Z,27.89
2022-10-18T15:18:06.816Z,27.22
2022-10-18T15:20:39.763Z,25.80
2022-10-18T15:23:28.465Z,25.40
2022-10-18T15:26:06.613Z,24.95
2022-10-18T15:28:52.656Z,25.17
2022-10-18T15:31:24.505Z,23.79
2022-10-18T15:33:54.755Z,23.37
2022-10-18T15:36:31.397Z,23.35
2022-10-18T15:39:18.533Z,22.71
2022-10-18T15:42:02.892Z,22.08
2022-10-18T15:44:38.461Z,21.72
2022-10-18T15:47:25.189Z,21.41
2022-10-18T15:49:56.830Z,21.96
2022-10-18T15:52:37.508Z,21.79
2022-10-18T15:55:31.746Z,21.77
2022-10-18T15:58:12.989Z,20.56
2022-10-18T16:00:44.014Z,20.15
2022-10-18T16:03:15.282Z,20.21
2022-10-18T16:05:43.830Z,19.84
2022-10-18T16:08:24.841Z,19.30
2022-10-18T16:10:53.239Z,19.23
2022-10-18T16:13:22.538Z,19.23
2022-10-18T16:15:53.367Z,19.76
2022-10-18T16:18:22.366Z,19.89
2022-10-18T16:20:50.366Z,20.09
2022-10-18T16:23:24.074Z,19.82
2022-10-18T16:25:53.553Z,20.06
2022-10-18T16:28:23.904Z,19.43
2022-10-18T16:31:00.493Z,19.35
2022-10-18T16:33:28.942Z,19.91
2022-10-18T16:35:57.979Z,19.64
2022-10-18T16:38:37.405Z,19.39
2022-10-18T16:41:07.322Z,19.35
2022-10-18T16:43:35.507Z,19.18
2022-10-18T16:46:07.118Z,19.42
2022-10-18T16:48:37.500Z,19.33
2022-10-18T16:51:05.691Z,19.23
2022-10-18T16:53:34.895Z,18.28
2022-10-18T16:56:03.819Z,18.16
2022-10-18T16:58:33.406Z,17.57
2022-10-18T17:01:05.349Z,17.44
2022-10-18T17:03:36.290Z,17.52
2022-10-18T17:06:06.127Z,17.61
2022-10-18T17:08:34.381Z,18.18
2022-10-18T17:11:03.025Z,18.30
2022-10-18T17:13:31.309Z,18.08
2022-10-18T17:16:00.598Z,18.01
2022-10-18T17:18:30.669Z,18.17
2022-10-18T17:21:03.371Z,17.99
2022-10-18T17:23:31.407Z,18.31
2022-10-18T17:26:08.599Z,17.84
2022-10-18T17:28:56.493Z,17.81
2022-10-18T17:31:24.707Z,17.43
2022-10-18T17:33:55.645Z,17.51
2022-10-18T17:36:26.604Z,17.48
2022-10-18T17:38:54.856Z,17.55
2022-10-18T17:41:23.763Z,16.91
2022-10-18T17:43:52.133Z,16.20
2022-10-18T17:46:20.932Z,17.01
2022-10-18T17:48:52.824Z,17.55
2022-10-18T17:51:21.850Z,17.65
2022-10-18T17:53:50.779Z,16.93
2022-10-18T17:56:19.313Z,16.96
2022-10-18T17:58:51.857Z,17.05
2022-10-18T18:01:23.649Z,17.09
2022-10-18T18:03:57.484Z,16.84
2022-10-18T18:06:31.498Z,16.86
2022-10-18T18:09:07.577Z,17.05
2022-10-18T18:11:37.033Z,16.95
2022-10-18T18:14:10.482Z,17.22
2022-10-18T18:16:41.539Z,16.60
2022-10-18T18:19:10.765Z,16.66
2022-10-18T18:21:40.548Z,16.02
2022-10-18T18:24:12.924Z,15.79
2022-10-18T18:26:41.520Z,15.66
2022-10-18T18:29:11.121Z,15.68
2022-10-18T18:31:40.310Z,16.37
2022-10-18T18:34:13.953Z,16.24
2022-10-18T18:36:43.432Z,16.11
2022-10-18T18:39:19.430Z,16.17
2022-10-18T18:41:50.434Z,16.07
2022-10-18T18:44:20.889Z,16.18
2022-10-18T18:46:49.932Z,16.23
2022-10-18T18:49:19.913Z,16.17
2022-10-18T18:51:48.415Z,15.92
2022-10-18T18:54:17.613Z,16.07
2022-10-18T18:56:46.628Z,16.39
2022-10-18T18:59:16.753Z,16.25
2022-10-18T19:01:46.949Z,16.00
2022-10-18T19:04:15.495Z,16.19
2022-10-18T19:06:45.686Z,15.76
2022-10-18T19:09:28.281Z,15.55
2022-10-18T19:11:56.923Z,15.86
2022-10-18T19:14:29.753Z,15.65
2022-10-18T19:17:02.581Z,15.35
2022-10-18T19:19:31.230Z,15.73
2022-10-18T19:22:01.599Z,15.68
2022-10-18T19:24:32.344Z,15.77
2022-10-18T19:27:10.277Z,15.73
2022-10-18T19:29:40.288Z,15.71
2022-10-18T19:32:13.343Z,15.67
2022-10-18T19:34:46.723Z,15.98
2022-10-18T19:37:16.021Z,16.03
2022-10-18T19:39:46.119Z,15.82
2022-10-18T19:42:19.176Z,15.22
2022-10-18T19:44:52.157Z,15.01
2022-10-18T19:47:21.102Z,14.92
2022-10-18T19:50:06.108Z,15.06
2022-10-18T19:52:36.833Z,15.02
2022-10-18T19:55:05.940Z,15.20
2022-10-18T19:57:34.377Z,14.99
2022-10-18T20:00:08.240Z,15.02
2022-10-18T20:02:39.306Z,14.87
2022-10-18T20:05:09.546Z,14.75
2022-10-18T20:07:38.076Z,14.86
2022-10-18T20:10:08.012Z,15.20
2022-10-18T20:12:39.035Z,14.78
2022-10-18T20:15:09.358Z,14.99
2022-10-18T20:17:39.573Z,14.60
2022-10-18T20:20:10.041Z,14.86
2022-10-18T20:22:39.830Z,15.11
2022-10-18T20:25:09.671Z,14.58
2022-10-18T20:27:39.568Z,14.92
2022-10-18T20:30:11.368Z,14.95
2022-10-18T20:32:42.915Z,14.88
2022-10-18T20:35:11.694Z,14.67
2022-10-18T20:37:39.358Z,14.82
2022-10-18T20:40:08.440Z,14.76
2022-10-18T20:42:37.137Z,14.71
2022-10-18T20:45:08.124Z,14.26
2022-10-18T20:47:36.997Z,14.20
2022-10-18T20:50:05.449Z,14.20
2022-10-18T20:52:33.995Z,14.56
2022-10-18T20:55:04.986Z,14.54
2022-10-18T20:57:36.376Z,14.51
2022-10-18T21:00:05.693Z,14.45
2022-10-18T21:02:33.526Z,14.79
2022-10-18T21:05:01.114Z,14.66
2022-10-18T21:07:32.588Z,14.51
2022-10-18T21:10:03.381Z,14.23
2022-10-18T21:12:32.153Z,14.59
2022-10-18T21:15:00.285Z,14.72
2022-10-18T21:17:28.124Z,14.61
2022-10-18T21:19:57.237Z,14.55
2022-10-18T21:22:24.850Z,14.79
2022-10-18T21:24:53.491Z,14.52
2022-10-18T21:27:21.890Z,14.09
2022-10-18T21:29:50.607Z,14.00
2022-10-18T21:32:18.712Z,14.10
2022-10-18T21:34:48.127Z,14.08
2022-10-18T21:37:16.305Z,13.75
2022-10-18T21:39:44.472Z,13.98
2022-10-18T21:42:13.913Z,13.91
2022-10-18T21:44:41.697Z,14.00
2022-10-18T21:47:09.941Z,13.86
2022-10-18T21:49:39.646Z,13.80
2022-10-18T21:52:07.583Z,13.91
2022-10-18T21:54:35.372Z,14.23
2022-10-18T21:57:04.873Z,14.44
2022-10-18T21:59:34.816Z,14.44
2022-10-18T22:02:03.459Z,14.48
2022-10-18T22:04:35.941Z,14.43
2022-10-18T22:07:06.136Z,14.25
2022-10-18T22:09:34.747Z,14.33
2022-10-18T22:12:03.675Z,14.17
2022-10-18T22:14:34.788Z,14.05
2022-10-18T22:17:12.302Z,14.00
2022-10-18T22:19:49.016Z,14.45
2022-10-18T22:22:18.319Z,14.08
2022-10-18T22:24:49.772Z,14.15
2022-10-18T22:27:19.296Z,14.12
2022-10-18T22:29:48.518Z,14.17
2022-10-18T22:32:17.876Z,13.96
2022-10-18T22:34:50.528Z,14.16
2022-10-18T22:37:20.258Z,14.30
2022-10-18T22:39:50.843Z,14.55
2022-10-18T22:42:19.935Z,14.69
2022-10-18T22:44:49.921Z,14.52
2022-10-18T22:47:19.593Z,14.46
2022-10-18T22:49:51.694Z,14.81
2022-10-18T22:52:22.483Z,14.99
2022-10-18T22:54:55.565Z,14.56
2022-10-18T22:57:24.749Z,14.74
2022-10-18T22:59:55.003Z,14.45
2022-10-18T23:02:24.280Z,14.67
2022-10-18T23:04:53.453Z,14.57
2022-10-18T23:07:28.427Z,14.59
2022-10-18T23:10:00.482Z,14.58
2022-10-18T23:12:31.521Z,14.72
2022-10-18T23:15:01.576Z,14.88
2022-10-18T23:17:32.470Z,14.80
2022-10-18T23:20:04.226Z,14.89
2022-10-18T23:22:34.574Z,14.79
2022-10-18T23:25:04.741Z,15.00
2022-10-18T23:27:34.411Z,14.85
2022-10-18T23:30:04.381Z,14.74
2022-10-18T23:32:34.302Z,14.87
2022-10-18T23:35:07.071Z,15.28
2022-10-18T23:37:37.121Z,15.32
2022-10-18T23:40:08.185Z,15.11
2022-10-18T23:42:40.539Z,15.22
2022-10-18T23:45:11.377Z,15.19
2022-10-18T23:47:42.541Z,15.07
2022-10-18T23:50:21.673Z,15.32
2022-10-18T23:52:54.375Z,15.18
2022-10-18T23:55:24.820Z,14.84
2022-10-18T23:57:54.002Z,15.24
